createdAt,value
2023-04-15T00:00:56.787Z,6.77
2023-04-15T00:01:56.825Z,6.78
2023-04-15T00:02:56.909Z,6.75
2023-04-15T00:03:56.876Z,6.75
2023-04-15T00:04:56.727Z,6.75
2023-04-15T00:05:56.716Z,6.77
2023-04-15T00:06:56.694Z,6.72
2023-04-15T00:07:56.692Z,6.74
2023-04-15T00:08:56.691Z,6.66
2023-04-15T00:09:56.660Z,6.67
2023-04-15T00:10:56.650Z,6.66
2023-04-15T00:11:56.637Z,6.67
2023-04-15T00:12:56.641Z,6.64
2023-04-15T00:13:56.626Z,6.69
2023-04-15T00:14:56.596Z,6.69
2023-04-15T00:15:56.587Z,6.67
2023-04-15T00:16:56.610Z,6.66
2023-04-15T00:17:56.623Z,6.67
2023-04-15T00:18:56.561Z,6.72
2023-04-15T00:19:56.527Z,6.72
2023-04-15T00:20:56.524Z,6.67
2023-04-15T00:21:56.506Z,6.67
2023-04-15T00:22:56.481Z,6.70
2023-04-15T00:23:56.491Z,6.69
2023-04-15T00:24:56.463Z,6.72
2023-04-15T00:25:56.446Z,6.77
2023-04-15T00:26:56.437Z,6.78
2023-04-15T00:27:56.425Z,6.81
2023-04-15T00:28:56.441Z,6.82
2023-04-15T00:29:56.399Z,6.85
2023-04-15T00:30:56.422Z,6.85
2023-04-15T00:31:56.392Z,6.87
2023-04-15T00:32:56.420Z,6.85
2023-04-15T00:33:56.367Z,6.81
2023-04-15T00:34:56.326Z,6.78
2023-04-15T00:35:56.337Z,6.75
2023-04-15T00:36:56.299Z,6.70
2023-04-15T00:37:56.283Z,6.48
2023-04-15T00:38:56.268Z,6.28
2023-04-15T00:39:56.270Z,6.05
2023-04-15T00:40:56.241Z,5.99
2023-04-15T00:41:56.236Z,5.93
2023-04-15T00:42:56.217Z,5.76
2023-04-15T00:43:56.201Z,5.57
2023-04-15T00:44:56.221Z,5.47
2023-04-15T00:45:56.224Z,5.48
2023-04-15T00:46:56.162Z,5.44
2023-04-15T00:47:56.187Z,5.44
2023-04-15T00:48:56.134Z,5.48
2023-04-15T00:49:56.137Z,5.50
2023-04-15T00:50:56.113Z,5.56
2023-04-15T00:51:56.101Z,5.51
2023-04-15T00:52:56.087Z,5.51
2023-04-15T00:53:56.070Z,5.61
2023-04-15T00:54:56.073Z,5.64
2023-04-15T00:55:56.053Z,5.68
2023-04-15T00:56:56.032Z,5.71
2023-04-15T00:57:56.019Z,5.76
2023-04-15T00:58:56.003Z,5.80
2023-04-15T00:59:56.025Z,5.83
2023-04-15T01:00:55.994Z,5.86
2023-04-15T01:01:56.059Z,5.87
2023-04-15T01:02:56.070Z,5.90
2023-04-15T01:03:55.972Z,5.87
2023-04-15T01:04:55.947Z,5.90
2023-04-15T01:05:55.914Z,5.91
2023-04-15T01:06:55.894Z,5.94
2023-04-15T01:07:55.883Z,5.97
2023-04-15T01:08:55.868Z,5.99
2023-04-15T01:09:55.880Z,5.94
2023-04-15T01:10:55.848Z,5.93
2023-04-15T01:11:55.829Z,5.99
2023-04-15T01:12:55.815Z,5.99
2023-04-15T01:13:55.806Z,5.93
2023-04-15T01:14:55.827Z,5.94
2023-04-15T01:15:55.860Z,5.94
2023-04-15T01:16:55.783Z,5.97
2023-04-15T01:17:55.805Z,5.93
2023-04-15T01:18:55.738Z,5.97
2023-04-15T01:19:55.726Z,5.99
2023-04-15T01:20:55.736Z,5.99
2023-04-15T01:21:55.698Z,5.97
2023-04-15T01:22:55.690Z,5.99
2023-04-15T01:23:55.671Z,5.99
2023-04-15T01:24:55.668Z,6.02
2023-04-15T01:25:55.662Z,6.01
2023-04-15T01:26:55.640Z,6.04
2023-04-15T01:27:55.618Z,5.98
2023-04-15T01:28:55.613Z,5.99
2023-04-15T01:29:55.590Z,5.94
2023-04-15T01:30:55.595Z,5.97
2023-04-15T01:31:55.658Z,5.98
2023-04-15T01:32:55.636Z,6.02
2023-04-15T01:33:55.545Z,6.02
2023-04-15T01:34:55.528Z,6.01
2023-04-15T01:35:55.527Z,6.02
2023-04-15T01:36:55.497Z,6.05
2023-04-15T01:37:55.487Z,6.05
2023-04-15T01:38:55.483Z,6.07
2023-04-15T01:39:55.459Z,6.08
2023-04-15T01:40:55.459Z,6.07
2023-04-15T01:41:55.448Z,6.05
2023-04-15T01:42:55.424Z,6.02
2023-04-15T01:43:55.417Z,6.01
2023-04-15T01:44:55.418Z,6.07
2023-04-15T01:45:55.403Z,6.05
2023-04-15T01:46:55.464Z,6.14
2023-04-15T01:47:55.407Z,6.12
2023-04-15T01:48:55.370Z,6.04
2023-04-15T01:49:55.340Z,6.02
2023-04-15T01:50:55.337Z,6.02
2023-04-15T01:51:55.310Z,6.01
2023-04-15T01:52:55.301Z,5.94
2023-04-15T01:53:55.291Z,5.97
2023-04-15T01:54:55.282Z,5.98
2023-04-15T01:55:55.277Z,5.90
2023-04-15T01:56:55.247Z,5.91
2023-04-15T01:57:55.234Z,5.90
2023-04-15T01:58:55.235Z,5.98
2023-04-15T01:59:55.258Z,5.94
2023-04-15T02:00:55.232Z,5.94
2023-04-15T02:01:55.262Z,6.02
2023-04-15T02:02:55.209Z,6.05
2023-04-15T02:03:55.206Z,6.05
2023-04-15T02:04:55.161Z,6.07
2023-04-15T02:05:55.149Z,5.99
2023-04-15T02:06:55.115Z,6.02
2023-04-15T02:07:55.102Z,5.91
2023-04-15T02:08:55.092Z,5.90
2023-04-15T02:09:55.085Z,5.89
2023-04-15T02:10:55.079Z,5.93
2023-04-15T02:11:55.059Z,5.93
2023-04-15T02:12:55.074Z,5.97
2023-04-15T02:13:55.025Z,5.94
2023-04-15T02:14:55.016Z,5.93
2023-04-15T02:15:55.023Z,5.98
2023-04-15T02:16:55.020Z,6.01
2023-04-15T02:17:55.018Z,5.97
2023-04-15T02:18:54.965Z,5.93
2023-04-15T02:19:54.951Z,5.89
2023-04-15T02:20:54.977Z,5.87
2023-04-15T02:21:54.926Z,5.80
2023-04-15T02:22:54.909Z,5.76
2023-04-15T02:23:54.901Z,5.73
2023-04-15T02:24:54.888Z,5.76
2023-04-15T02:25:54.933Z,5.80
2023-04-15T02:26:54.863Z,5.82
2023-04-15T02:27:54.847Z,5.84
2023-04-15T02:28:54.834Z,5.84
2023-04-15T02:29:54.827Z,5.84
2023-04-15T02:30:54.830Z,5.82
2023-04-15T02:31:54.867Z,5.73
2023-04-15T02:32:54.801Z,5.72
2023-04-15T02:33:54.773Z,5.69
2023-04-15T02:34:54.763Z,5.64
2023-04-15T02:35:54.797Z,5.68
2023-04-15T02:36:54.757Z,5.65
2023-04-15T02:37:54.724Z,5.59
2023-04-15T02:38:54.719Z,5.54
2023-04-15T02:39:54.701Z,5.57
2023-04-15T02:40:54.700Z,5.54
2023-04-15T02:41:54.680Z,5.53
2023-04-15T02:42:54.656Z,5.51
2023-04-15T02:43:54.648Z,5.50
2023-04-15T02:44:54.627Z,5.43
2023-04-15T02:45:54.678Z,5.39
2023-04-15T02:46:54.607Z,5.44
2023-04-15T02:47:54.610Z,5.47
2023-04-15T02:48:54.575Z,5.51
2023-04-15T02:49:54.565Z,5.57
2023-04-15T02:50:54.551Z,5.56
2023-04-15T02:51:54.552Z,5.61
2023-04-15T02:52:54.549Z,5.65
2023-04-15T02:53:54.520Z,5.66
2023-04-15T02:54:54.500Z,5.66
2023-04-15T02:55:54.508Z,5.71
2023-04-15T02:56:54.472Z,5.71
2023-04-15T02:57:54.460Z,5.68
2023-04-15T02:58:54.447Z,5.75
2023-04-15T02:59:54.436Z,5.76
2023-04-15T03:00:54.435Z,5.75
2023-04-15T03:01:54.546Z,5.79
2023-04-15T03:02:54.458Z,5.82
2023-04-15T03:03:54.438Z,5.75
2023-04-15T03:04:54.374Z,5.76
2023-04-15T03:05:54.377Z,5.82
2023-04-15T03:06:54.350Z,5.80
2023-04-15T03:07:54.335Z,5.80
2023-04-15T03:08:54.342Z,5.83
2023-04-15T03:09:54.311Z,5.80
2023-04-15T03:10:54.316Z,5.84
2023-04-15T03:11:54.283Z,5.86
2023-04-15T03:12:54.266Z,5.80
2023-04-15T03:13:54.257Z,5.73
2023-04-15T03:14:54.246Z,5.66
2023-04-15T03:15:54.324Z,5.57
2023-04-15T03:16:54.215Z,5.53
2023-04-15T03:17:54.247Z,5.48
2023-04-15T03:18:54.189Z,5.43
2023-04-15T03:19:54.177Z,5.30
2023-04-15T03:20:54.200Z,5.25
2023-04-15T03:21:54.166Z,5.17
2023-04-15T03:22:54.135Z,5.12
2023-04-15T03:23:54.127Z,5.11
2023-04-15T03:24:54.136Z,5.08
2023-04-15T03:25:54.107Z,5.07
2023-04-15T03:26:54.109Z,5.07
2023-04-15T03:27:54.078Z,5.05
2023-04-15T03:28:54.062Z,5.12
2023-04-15T03:29:54.059Z,5.12
2023-04-15T03:30:54.091Z,5.17
2023-04-15T03:31:54.041Z,5.18
2023-04-15T03:32:54.096Z,5.26
2023-04-15T03:33:54.012Z,5.29
2023-04-15T03:34:53.990Z,5.26
2023-04-15T03:35:53.973Z,5.29
2023-04-15T03:36:54.082Z,5.32
2023-04-15T03:37:53.947Z,5.30
2023-04-15T03:38:53.941Z,5.41
2023-04-15T03:39:53.926Z,5.39
2023-04-15T03:40:53.948Z,5.39
2023-04-15T03:41:53.918Z,5.44
2023-04-15T03:42:53.886Z,5.50
2023-04-15T03:43:53.880Z,5.51
2023-04-15T03:44:53.869Z,5.50
2023-04-15T03:45:53.851Z,5.53
2023-04-15T03:46:53.909Z,5.59
2023-04-15T03:47:53.879Z,5.57
2023-04-15T03:48:53.811Z,5.61
2023-04-15T03:49:53.799Z,5.64
2023-04-15T03:50:53.784Z,5.57
2023-04-15T03:51:53.790Z,5.64
2023-04-15T03:52:53.758Z,5.65
2023-04-15T03:53:53.752Z,5.68
2023-04-15T03:54:53.742Z,5.66
2023-04-15T03:55:53.722Z,5.54
2023-04-15T03:56:53.743Z,5.56
2023-04-15T03:57:53.698Z,5.54
2023-04-15T03:58:53.691Z,5.61
2023-04-15T03:59:53.668Z,5.64
2023-04-15T04:00:53.664Z,5.65
2023-04-15T04:01:53.814Z,5.69
2023-04-15T04:02:53.823Z,5.71
2023-04-15T04:03:53.842Z,5.71
2023-04-15T04:04:53.699Z,5.69
2023-04-15T04:05:53.590Z,5.72
2023-04-15T04:06:53.625Z,5.69
2023-04-15T04:07:53.575Z,5.72
2023-04-15T04:08:53.557Z,5.71
2023-04-15T04:09:53.557Z,5.69
2023-04-15T04:10:53.612Z,5.69
2023-04-15T04:11:53.591Z,5.69
2023-04-15T04:12:53.611Z,5.69
2023-04-15T04:13:53.575Z,5.69
2023-04-15T04:14:53.510Z,5.69
2023-04-15T04:15:53.513Z,5.69
2023-04-15T04:16:53.492Z,5.65
2023-04-15T04:17:53.564Z,5.57
2023-04-15T04:18:53.449Z,5.57
2023-04-15T04:19:53.427Z,5.54
2023-04-15T04:20:53.399Z,5.56
2023-04-15T04:21:53.399Z,5.59
2023-04-15T04:22:53.377Z,5.61
2023-04-15T04:23:53.363Z,5.59
2023-04-15T04:24:53.357Z,5.56
2023-04-15T04:25:53.342Z,5.48
2023-04-15T04:26:53.356Z,5.47
2023-04-15T04:27:53.309Z,5.35
2023-04-15T04:28:53.319Z,5.38
2023-04-15T04:29:53.287Z,5.35
2023-04-15T04:30:53.285Z,5.38
2023-04-15T04:31:53.284Z,5.44
2023-04-15T04:32:53.304Z,5.50
2023-04-15T04:33:53.238Z,5.54
2023-04-15T04:34:53.227Z,5.53
2023-04-15T04:35:53.220Z,5.53
2023-04-15T04:36:53.218Z,5.53
2023-04-15T04:37:53.184Z,5.54
2023-04-15T04:38:53.171Z,5.51
2023-04-15T04:39:53.157Z,5.57
2023-04-15T04:40:53.156Z,5.64
2023-04-15T04:41:53.147Z,5.69
2023-04-15T04:42:53.119Z,5.68
2023-04-15T04:43:53.118Z,5.72
2023-04-15T04:44:53.119Z,5.72
2023-04-15T04:45:53.120Z,5.69
2023-04-15T04:46:53.104Z,5.59
2023-04-15T04:47:53.121Z,5.51
2023-04-15T04:48:53.046Z,5.48
2023-04-15T04:49:53.031Z,5.44
2023-04-15T04:50:53.028Z,5.32
2023-04-15T04:51:53.007Z,5.23
2023-04-15T04:52:53.005Z,5.17
2023-04-15T04:53:52.988Z,5.08
2023-04-15T04:54:52.964Z,4.93
2023-04-15T04:55:52.950Z,4.87
2023-04-15T04:56:52.948Z,4.84
2023-04-15T04:57:52.948Z,4.78
2023-04-15T04:58:52.920Z,4.77
2023-04-15T04:59:52.899Z,4.77
2023-04-15T05:00:52.969Z,4.80
2023-04-15T05:01:52.881Z,4.90
2023-04-15T05:02:53.076Z,4.87
2023-04-15T05:03:52.950Z,4.89
2023-04-15T05:04:52.839Z,4.93
2023-04-15T05:05:52.825Z,4.93
2023-04-15T05:06:52.813Z,4.97
2023-04-15T05:07:52.813Z,4.96
2023-04-15T05:08:52.788Z,4.99
2023-04-15T05:09:52.792Z,5.04
2023-04-15T05:10:52.759Z,5.08
2023-04-15T05:11:52.752Z,5.10
2023-04-15T05:12:52.750Z,5.14
2023-04-15T05:13:52.721Z,5.25
2023-04-15T05:14:52.720Z,5.30
2023-04-15T05:15:52.744Z,5.39
2023-04-15T05:16:52.705Z,5.48
2023-04-15T05:17:52.714Z,5.56
2023-04-15T05:18:52.672Z,5.62
2023-04-15T05:19:52.652Z,5.71
2023-04-15T05:20:52.639Z,5.71
2023-04-15T05:21:52.623Z,5.80
2023-04-15T05:22:52.627Z,5.89
2023-04-15T05:23:52.600Z,5.87
2023-04-15T05:24:52.587Z,5.91
2023-04-15T05:25:52.575Z,5.98
2023-04-15T05:26:52.556Z,5.98
2023-04-15T05:27:52.560Z,6.05
2023-04-15T05:28:52.531Z,6.09
2023-04-15T05:29:52.516Z,6.11
2023-04-15T05:30:52.526Z,6.16
2023-04-15T05:31:52.501Z,6.20
2023-04-15T05:32:52.569Z,6.27
2023-04-15T05:33:52.469Z,6.28
2023-04-15T05:34:52.459Z,6.16
2023-04-15T05:35:52.464Z,6.20
2023-04-15T05:36:52.456Z,6.24
2023-04-15T05:37:52.431Z,6.26
2023-04-15T05:38:52.403Z,6.28
2023-04-15T05:39:52.392Z,6.35
2023-04-15T05:40:52.374Z,6.41
2023-04-15T05:41:52.366Z,6.39
2023-04-15T05:42:52.367Z,6.35
2023-04-15T05:43:52.349Z,6.36
2023-04-15T05:44:52.323Z,6.42
2023-04-15T05:45:52.355Z,6.44
2023-04-15T05:46:52.303Z,6.42
2023-04-15T05:47:52.333Z,6.33
2023-04-15T05:48:53.393Z,6.38
2023-04-15T05:49:52.255Z,6.36
2023-04-15T05:50:52.244Z,6.38
2023-04-15T05:51:52.229Z,6.36
2023-04-15T05:52:52.249Z,6.42
2023-04-15T05:53:52.202Z,6.48
2023-04-15T05:54:52.192Z,6.49
2023-04-15T05:55:52.174Z,6.56
2023-04-15T05:56:52.169Z,6.54
2023-04-15T05:57:52.170Z,6.63
2023-04-15T05:58:53.817Z,6.67
2023-04-15T05:59:52.128Z,6.72
2023-04-15T06:00:52.111Z,6.77
2023-04-15T06:01:52.171Z,6.70
2023-04-15T06:02:52.161Z,6.84
2023-04-15T06:03:52.194Z,6.87
2023-04-15T06:04:52.117Z,6.93
2023-04-15T06:05:52.044Z,6.99
2023-04-15T06:06:52.036Z,7.06
2023-04-15T06:07:52.024Z,7.18
2023-04-15T06:08:52.017Z,7.23
2023-04-15T06:09:52.015Z,7.31
2023-04-15T06:10:51.973Z,7.35
2023-04-15T06:11:51.965Z,7.39
2023-04-15T06:12:51.980Z,7.39
2023-04-15T06:13:51.953Z,7.43
2023-04-15T06:14:51.923Z,7.45
2023-04-15T06:15:51.936Z,7.50
2023-04-15T06:16:51.902Z,7.51
2023-04-15T06:17:52.024Z,7.48
2023-04-15T06:18:51.884Z,7.54
2023-04-15T06:19:51.854Z,7.61
2023-04-15T06:20:51.863Z,7.72
2023-04-15T06:21:51.834Z,7.77
2023-04-15T06:22:51.823Z,7.87
2023-04-15T06:23:51.815Z,7.79
2023-04-15T06:24:51.792Z,7.87
2023-04-15T06:25:51.772Z,7.95
2023-04-15T06:26:51.772Z,8.01
2023-04-15T06:27:51.752Z,8.08
2023-04-15T06:28:51.757Z,8.06
2023-04-15T06:29:51.739Z,8.05
2023-04-15T06:30:51.716Z,8.13
2023-04-15T06:31:51.743Z,8.20
2023-04-15T06:32:51.720Z,8.26
2023-04-15T06:33:51.686Z,8.24
2023-04-15T06:34:51.663Z,8.27
2023-04-15T06:35:51.650Z,8.37
2023-04-15T06:36:51.656Z,8.48
2023-04-15T06:37:51.640Z,8.52
2023-04-15T06:38:51.628Z,8.55
2023-04-15T06:39:51.591Z,8.63
2023-04-15T06:40:51.574Z,8.63
2023-04-15T06:41:51.564Z,8.58
2023-04-15T06:42:51.559Z,8.60
2023-04-15T06:43:51.562Z,8.71
2023-04-15T06:44:51.529Z,8.78
2023-04-15T06:45:51.540Z,8.78
2023-04-15T06:46:51.501Z,8.81
2023-04-15T06:47:51.512Z,8.81
2023-04-15T06:48:51.491Z,8.82
2023-04-15T06:49:51.456Z,8.89
2023-04-15T06:50:51.465Z,8.97
2023-04-15T06:51:51.437Z,9.00
2023-04-15T06:52:51.440Z,9.00
2023-04-15T06:53:51.416Z,8.99
2023-04-15T06:54:51.393Z,9.03
2023-04-15T06:55:51.390Z,9.06
2023-04-15T06:56:51.370Z,9.16
2023-04-15T06:57:51.356Z,9.23
2023-04-15T06:58:51.367Z,9.16
2023-04-15T06:59:51.326Z,9.25
2023-04-15T07:00:51.365Z,9.16
2023-04-15T07:01:51.343Z,9.23
2023-04-15T07:02:51.330Z,9.31
2023-04-15T07:03:51.300Z,9.29
2023-04-15T07:04:51.333Z,9.21
2023-04-15T07:05:51.244Z,9.21
2023-04-15T07:06:51.232Z,9.21
2023-04-15T07:07:51.219Z,9.19
2023-04-15T07:08:51.255Z,9.00
2023-04-15T07:09:51.196Z,8.97
2023-04-15T07:10:51.181Z,8.66
2023-04-15T07:11:51.169Z,8.53
2023-04-15T07:12:51.164Z,8.60
2023-04-15T07:13:51.150Z,8.70
2023-04-15T07:14:51.149Z,8.81
2023-04-15T07:15:51.134Z,8.69
2023-04-15T07:16:51.190Z,8.63
2023-04-15T07:17:51.131Z,8.56
2023-04-15T07:18:51.092Z,8.49
2023-04-15T07:19:51.091Z,8.55
2023-04-15T07:20:51.051Z,8.67
2023-04-15T07:21:51.049Z,8.63
2023-04-15T07:22:51.020Z,8.71
2023-04-15T07:23:51.016Z,8.81
2023-04-15T07:24:51.036Z,8.94
2023-04-15T07:25:50.980Z,8.95
2023-04-15T07:26:50.972Z,9.00
2023-04-15T07:27:50.952Z,9.02
2023-04-15T07:28:50.947Z,9.00
2023-04-15T07:29:50.946Z,8.94
2023-04-15T07:30:50.935Z,8.99
2023-04-15T07:31:50.904Z,8.89
2023-04-15T07:32:50.939Z,8.92
2023-04-15T07:33:50.879Z,8.97
2023-04-15T07:34:50.888Z,9.08
2023-04-15T07:35:50.848Z,9.03
2023-04-15T07:36:50.836Z,8.84
2023-04-15T07:37:50.830Z,8.71
2023-04-15T07:38:50.864Z,8.60
2023-04-15T07:39:50.816Z,8.64
2023-04-15T07:40:50.804Z,8.52
2023-04-15T07:41:50.771Z,8.60
2023-04-15T07:42:50.777Z,8.78
2023-04-15T07:43:50.742Z,9.00
2023-04-15T07:44:50.758Z,9.11
2023-04-15T07:45:50.766Z,9.25
2023-04-15T07:46:50.706Z,9.39
2023-04-15T07:47:50.772Z,9.47
2023-04-15T07:48:50.676Z,9.51
2023-04-15T07:49:50.696Z,9.28
2023-04-15T07:50:50.655Z,9.21
2023-04-15T07:51:50.654Z,9.31
2023-04-15T07:52:50.625Z,9.43
2023-04-15T07:53:50.611Z,9.64
2023-04-15T07:54:50.623Z,9.83
2023-04-15T07:55:50.590Z,9.95
2023-04-15T07:56:50.597Z,10.12
2023-04-15T07:57:50.566Z,10.28
2023-04-15T07:58:50.549Z,10.44
2023-04-15T07:59:50.568Z,10.35
2023-04-15T08:00:50.516Z,10.54
2023-04-15T08:01:50.647Z,10.90
2023-04-15T08:02:50.614Z,11.27
2023-04-15T08:03:50.674Z,11.60
2023-04-15T08:04:50.567Z,11.95
2023-04-15T08:05:50.498Z,12.24
2023-04-15T08:06:50.504Z,12.53
2023-04-15T08:07:50.431Z,12.73
2023-04-15T08:08:50.421Z,12.98
2023-04-15T08:09:50.441Z,13.11
2023-04-15T08:10:52.495Z,13.28
2023-04-15T08:11:50.389Z,13.50
2023-04-15T08:12:50.425Z,13.90
2023-04-15T08:13:50.352Z,13.97
2023-04-15T08:14:50.373Z,14.08
2023-04-15T08:15:50.393Z,14.55
2023-04-15T08:16:50.336Z,14.81
2023-04-15T08:17:50.306Z,14.84
2023-04-15T08:18:50.301Z,15.03
2023-04-15T08:19:50.323Z,15.00
2023-04-15T08:20:50.292Z,14.72
2023-04-15T08:21:50.292Z,14.51
2023-04-15T08:22:50.231Z,14.30
2023-04-15T08:23:50.222Z,14.22
2023-04-15T08:24:50.323Z,14.44
2023-04-15T08:25:50.216Z,14.36
2023-04-15T08:26:50.221Z,14.35
2023-04-15T08:27:50.163Z,14.05
2023-04-15T08:28:50.167Z,13.81
2023-04-15T08:29:50.142Z,13.83
2023-04-15T08:30:50.236Z,13.87
2023-04-15T08:31:50.211Z,13.79
2023-04-15T08:32:50.170Z,13.41
2023-04-15T08:33:50.082Z,13.38
2023-04-15T08:34:50.070Z,13.42
2023-04-15T08:35:50.075Z,13.25
2023-04-15T08:36:50.048Z,13.33
2023-04-15T08:37:50.034Z,13.38
2023-04-15T08:38:50.020Z,13.42
2023-04-15T08:39:50.012Z,13.31
2023-04-15T08:40:50.007Z,13.03
2023-04-15T08:41:49.984Z,12.93
2023-04-15T08:42:49.964Z,13.11
2023-04-15T08:43:49.955Z,13.28
2023-04-15T08:44:50.010Z,13.39
2023-04-15T08:45:49.947Z,13.62
2023-04-15T08:46:49.961Z,13.92
2023-04-15T08:47:49.989Z,14.04
2023-04-15T08:48:49.887Z,14.14
2023-04-15T08:49:49.876Z,14.26
2023-04-15T08:50:49.888Z,14.18
2023-04-15T08:51:49.858Z,14.45
2023-04-15T08:52:49.833Z,14.62
2023-04-15T08:53:49.832Z,14.70
2023-04-15T08:54:49.812Z,14.79
2023-04-15T08:55:49.813Z,14.94
2023-04-15T08:56:49.833Z,15.14
2023-04-15T08:57:49.771Z,15.03
2023-04-15T08:58:49.755Z,15.03
2023-04-15T08:59:49.766Z,14.73
2023-04-15T09:00:49.815Z,14.32
2023-04-15T09:01:49.769Z,13.96
2023-04-15T09:02:49.859Z,13.89
2023-04-15T09:03:49.803Z,13.93
2023-04-15T09:04:49.710Z,14.00
2023-04-15T09:05:50.816Z,13.93
2023-04-15T09:06:49.649Z,13.74
2023-04-15T09:07:49.660Z,13.38
2023-04-15T09:08:49.627Z,13.30
2023-04-15T09:09:49.611Z,13.23
2023-04-15T09:10:49.618Z,13.27
2023-04-15T09:11:49.586Z,13.38
2023-04-15T09:12:49.568Z,13.41
2023-04-15T09:13:49.569Z,13.50
2023-04-15T09:14:49.546Z,13.59
2023-04-15T09:15:49.549Z,13.74
2023-04-15T09:16:50.491Z,13.72
2023-04-15T09:17:49.550Z,13.75
2023-04-15T09:18:49.494Z,13.53
2023-04-15T09:19:49.479Z,13.44
2023-04-15T09:20:49.481Z,13.46
2023-04-15T09:21:49.456Z,13.31
2023-04-15T09:22:49.474Z,13.27
2023-04-15T09:23:49.428Z,13.20
2023-04-15T09:24:49.412Z,12.85
2023-04-15T09:25:49.428Z,12.68
2023-04-15T09:26:49.387Z,12.72
2023-04-15T09:27:49.377Z,12.64
2023-04-15T09:28:49.372Z,12.61
2023-04-15T09:29:49.347Z,12.75
2023-04-15T09:30:50.905Z,12.91
2023-04-15T09:31:49.322Z,12.98
2023-04-15T09:32:49.381Z,13.13
2023-04-15T09:33:49.296Z,13.09
2023-04-15T09:34:49.283Z,12.97
2023-04-15T09:35:49.298Z,12.76
2023-04-15T09:36:50.963Z,12.76
2023-04-15T09:37:49.241Z,12.82
2023-04-15T09:38:49.223Z,12.93
2023-04-15T09:39:49.211Z,12.85
2023-04-15T09:40:49.218Z,12.95
2023-04-15T09:41:49.188Z,12.91
2023-04-15T09:42:50.329Z,12.86
2023-04-15T09:43:49.161Z,12.91
2023-04-15T09:44:49.144Z,12.94
2023-04-15T09:45:49.162Z,12.87
2023-04-15T09:46:49.129Z,12.80
2023-04-15T09:47:49.130Z,12.70
2023-04-15T09:48:49.108Z,12.67
2023-04-15T09:49:49.127Z,12.70
2023-04-15T09:50:49.104Z,12.76
2023-04-15T09:52:03.965Z,12.70
2023-04-15T09:52:50.039Z,12.80
2023-04-15T09:53:49.027Z,12.86
2023-04-15T09:54:49.011Z,12.80
2023-04-15T09:55:49.021Z,12.76
2023-04-15T09:56:48.986Z,12.67
2023-04-15T09:57:48.972Z,12.60
2023-04-15T09:58:48.963Z,12.57
2023-04-15T09:59:48.949Z,12.62
2023-04-15T10:00:48.937Z,12.78
2023-04-15T10:01:49.092Z,12.93
2023-04-15T10:02:49.094Z,13.08
2023-04-15T10:03:48.966Z,13.11
2023-04-15T10:04:48.918Z,13.00
2023-04-15T10:05:48.876Z,12.95
2023-04-15T10:06:48.872Z,13.03
2023-04-15T10:07:48.846Z,13.13
2023-04-15T10:08:48.832Z,13.25
2023-04-15T10:09:48.820Z,13.13
2023-04-15T10:10:48.805Z,13.12
2023-04-15T10:11:48.809Z,13.00
2023-04-15T10:12:48.777Z,12.97
2023-04-15T10:13:48.766Z,12.93
2023-04-15T10:14:48.757Z,12.80
2023-04-15T10:15:48.764Z,12.87
2023-04-15T10:16:48.741Z,12.85
2023-04-15T10:17:48.750Z,12.70
2023-04-15T10:18:48.699Z,12.62
2023-04-15T10:19:48.687Z,12.55
2023-04-15T10:20:48.707Z,12.58
2023-04-15T10:21:48.678Z,12.45
2023-04-15T10:22:48.656Z,12.47
2023-04-15T10:23:48.650Z,12.39
2023-04-15T10:24:48.625Z,12.42
2023-04-15T10:25:48.606Z,12.35
2023-04-15T10:26:48.613Z,12.31
2023-04-15T10:27:48.608Z,12.40
2023-04-15T10:28:48.585Z,12.39
2023-04-15T10:29:48.557Z,12.27
2023-04-15T10:30:48.537Z,12.12
2023-04-15T10:31:48.639Z,12.17
2023-04-15T10:32:48.583Z,12.25
2023-04-15T10:33:48.505Z,12.35
2023-04-15T10:34:48.503Z,12.42
2023-04-15T10:35:48.478Z,12.57
2023-04-15T10:36:48.497Z,12.67
2023-04-15T10:37:48.457Z,12.83
2023-04-15T10:38:48.433Z,12.87
2023-04-15T10:39:48.431Z,12.95
2023-04-15T10:40:48.418Z,12.94
2023-04-15T10:41:48.394Z,12.98
2023-04-15T10:42:48.385Z,12.94
2023-04-15T10:43:48.372Z,12.87
2023-04-15T10:44:48.358Z,12.67
2023-04-15T10:45:48.357Z,12.67
2023-04-15T10:46:48.420Z,12.80
2023-04-15T10:47:48.342Z,12.75
2023-04-15T10:48:48.326Z,12.76
2023-04-15T10:49:48.290Z,12.72
2023-04-15T10:50:48.275Z,12.64
2023-04-15T10:51:48.280Z,12.58
2023-04-15T10:52:48.270Z,12.58
2023-04-15T10:53:48.249Z,12.60
2023-04-15T10:54:48.227Z,12.57
2023-04-15T10:55:48.205Z,12.57
2023-04-15T10:56:48.213Z,12.50
2023-04-15T10:57:48.183Z,12.58
2023-04-15T10:58:48.188Z,12.67
2023-04-15T10:59:48.159Z,12.64
2023-04-15T11:00:48.140Z,12.61
2023-04-15T11:01:48.247Z,12.49
2023-04-15T11:02:48.238Z,12.40
2023-04-15T11:03:48.294Z,12.25
2023-04-15T11:04:48.245Z,12.09
2023-04-15T11:05:48.074Z,12.02
2023-04-15T11:06:48.070Z,12.00
2023-04-15T11:07:48.049Z,11.84
2023-04-15T11:08:48.123Z,11.73
2023-04-15T11:09:48.021Z,11.72
2023-04-15T11:10:48.011Z,11.72
2023-04-15T11:11:48.002Z,11.75
2023-04-15T11:12:47.975Z,11.72
2023-04-15T11:13:48.006Z,11.75
2023-04-15T11:14:47.952Z,11.77
2023-04-15T11:15:47.955Z,11.84
2023-04-15T11:16:47.991Z,11.77
2023-04-15T11:17:47.926Z,11.75
2023-04-15T11:18:47.958Z,11.78
2023-04-15T11:19:47.878Z,11.75
2023-04-15T11:20:47.869Z,11.73
2023-04-15T11:21:47.868Z,11.62
2023-04-15T11:22:47.845Z,11.70
2023-04-15T11:23:47.829Z,11.81
2023-04-15T11:24:47.831Z,11.87
2023-04-15T11:25:47.800Z,11.90
2023-04-15T11:26:47.799Z,12.00
2023-04-15T11:27:47.776Z,12.09
2023-04-15T11:28:47.872Z,12.21
2023-04-15T11:29:47.744Z,12.13
2023-04-15T11:30:47.731Z,12.04
2023-04-15T11:31:47.774Z,12.09
2023-04-15T11:32:47.751Z,12.17
2023-04-15T11:33:47.695Z,12.10
2023-04-15T11:34:47.672Z,12.10
2023-04-15T11:35:47.662Z,12.03
2023-04-15T11:36:47.663Z,11.81
2023-04-15T11:37:47.641Z,11.57
2023-04-15T11:38:47.650Z,11.62
2023-04-15T11:39:47.616Z,11.51
2023-04-15T11:40:47.617Z,11.45
2023-04-15T11:41:47.606Z,11.44
2023-04-15T11:42:50.137Z,11.33
2023-04-15T11:43:47.560Z,11.26
2023-04-15T11:44:47.543Z,11.30
2023-04-15T11:45:47.581Z,11.41
2023-04-15T11:46:47.533Z,11.26
2023-04-15T11:47:47.533Z,11.12
2023-04-15T11:48:47.541Z,11.18
2023-04-15T11:49:47.473Z,11.17
2023-04-15T11:50:47.460Z,11.25
2023-04-15T11:51:47.462Z,11.25
2023-04-15T11:52:47.435Z,11.22
2023-04-15T11:53:47.422Z,11.25
2023-04-15T11:54:47.409Z,11.23
2023-04-15T11:55:47.397Z,11.27
2023-04-15T11:56:47.414Z,11.27
2023-04-15T11:57:47.380Z,11.18
2023-04-15T11:58:47.365Z,11.17
2023-04-15T11:59:47.353Z,11.27
2023-04-15T12:00:47.332Z,11.27
2023-04-15T12:01:47.361Z,11.33
2023-04-15T12:02:47.462Z,11.41
2023-04-15T12:03:47.553Z,11.41
2023-04-15T12:04:47.389Z,11.45
2023-04-15T12:05:47.263Z,11.36
2023-04-15T12:06:47.265Z,11.26
2023-04-15T12:07:47.234Z,11.19
2023-04-15T12:08:47.222Z,11.25
2023-04-15T12:09:47.215Z,11.26
2023-04-15T12:10:47.197Z,11.22
2023-04-15T12:11:47.236Z,11.29
2023-04-15T12:12:47.187Z,11.22
2023-04-15T12:13:47.160Z,11.15
2023-04-15T12:14:47.142Z,11.10
2023-04-15T12:15:47.151Z,11.08
2023-04-15T12:16:48.818Z,11.10
2023-04-15T12:17:51.774Z,11.10
2023-04-15T12:18:47.105Z,11.12
2023-04-15T12:19:47.082Z,11.22
2023-04-15T12:20:47.059Z,11.25
2023-04-15T12:21:47.060Z,11.23
2023-04-15T12:22:47.046Z,11.29
2023-04-15T12:23:47.020Z,11.36
2023-04-15T12:24:47.050Z,11.35
2023-04-15T12:25:46.994Z,11.36
2023-04-15T12:26:46.989Z,11.35
2023-04-15T12:27:46.979Z,11.29
2023-04-15T12:28:46.976Z,11.23
2023-04-15T12:29:46.948Z,11.12
2023-04-15T12:30:46.930Z,10.93
2023-04-15T12:31:47.066Z,10.93
2023-04-15T12:32:47.005Z,10.86
2023-04-15T12:33:46.888Z,10.93
2023-04-15T12:34:46.878Z,11.07
2023-04-15T12:35:46.875Z,11.17
2023-04-15T12:36:46.893Z,11.18
2023-04-15T12:37:46.864Z,11.22
2023-04-15T12:38:46.833Z,11.26
2023-04-15T12:39:46.819Z,11.45
2023-04-15T12:40:46.799Z,11.41
2023-04-15T12:41:46.784Z,11.36
2023-04-15T12:42:46.791Z,11.37
2023-04-15T12:43:46.778Z,11.45
2023-04-15T12:44:46.822Z,11.57
2023-04-15T12:45:46.735Z,11.55
2023-04-15T12:46:46.733Z,11.54
2023-04-15T12:47:46.758Z,11.57
2023-04-15T12:48:46.693Z,11.52
2023-04-15T12:49:46.677Z,11.50
2023-04-15T12:50:46.665Z,11.36
2023-04-15T12:51:46.653Z,11.27
2023-04-15T12:52:46.652Z,11.27
2023-04-15T12:53:46.621Z,11.32
2023-04-15T12:54:46.609Z,11.30
2023-04-15T12:55:46.598Z,11.25
2023-04-15T12:56:46.620Z,11.25
2023-04-15T12:57:46.584Z,11.14
2023-04-15T12:58:46.552Z,11.11
2023-04-15T12:59:46.564Z,11.04
2023-04-15T13:00:46.546Z,11.05
2023-04-15T13:01:46.569Z,11.17
2023-04-15T13:02:46.606Z,11.19
2023-04-15T13:03:46.730Z,11.22
2023-04-15T13:04:46.514Z,11.23
2023-04-15T13:05:46.467Z,11.18
2023-04-15T13:06:46.453Z,11.22
2023-04-15T13:07:46.470Z,11.23
2023-04-15T13:08:57.499Z,11.14